Time;durP1;ratioP1;P1;durP2;ratioP2;P2;SDS_P1;SDS_P2;PMS_P1;PMS_P2;Temp;Humidity;BMP_temperature;BMP_pressure;BME280_temperature;BME280_humidity;BME280_pressure;Samples;Min_cycle;Max_cycle;Signal;HPM_P1;HPM_P2
2022/09/11 00:01:56;;;;;;;59.50;25.17;;;;;;;13.53;100.00;101770.44;5284393;28;20096;-74
2022/09/11 00:04:27;;;;;;;53.47;24.08;;;;;;;13.47;100.00;101777.31;5285110;28;20026;-74
2022/09/11 00:06:58;;;;;;;58.60;24.27;;;;;;;13.42;100.00;101779.66;5279208;28;20036;-75
2022/09/11 00:09:29;;;;;;;61.67;25.27;;;;;;;13.42;100.00;101788.59;5278587;28;20380;-74
2022/09/11 00:11:59;;;;;;;57.30;25.80;;;;;;;13.42;100.00;101787.75;5273112;28;20019;-74
2022/09/11 00:14:30;;;;;;;58.25;27.27;;;;;;;13.44;100.00;101788.44;5284856;28;20016;-75
2022/09/11 00:17:00;;;;;;;62.90;28.13;;;;;;;13.47;100.00;101790.81;5285758;28;20024;-74
2022/09/11 00:19:30;;;;;;;256.95;26.70;;;;;;;13.44;100.00;101791.13;5284999;28;20016;-74
2022/09/11 00:22:01;;;;;;;350.27;33.30;;;;;;;13.36;100.00;101783.84;5286029;28;20058;-74
2022/09/11 00:24:31;;;;;;;121.75;26.00;;;;;;;13.29;100.00;101788.19;5271266;28;20019;-75
2022/09/11 00:27:02;;;;;;;66.32;28.02;;;;;;;13.28;100.00;101791.06;5286143;28;20484;-74
2022/09/11 00:29:32;;;;;;;81.97;31.70;;;;;;;13.34;100.00;101780.47;5271711;28;20031;-74
2022/09/11 00:32:03;;;;;;;87.13;33.45;;;;;;;13.38;100.00;101789.91;5272554;28;20382;-74
2022/09/11 00:34:34;;;;;;;231.98;35.22;;;;;;;13.37;100.00;101793.63;5284835;28;20106;-74
2022/09/11 00:37:04;;;;;;;121.30;29.38;;;;;;;13.34;100.00;101787.72;5271969;28;20024;-74
2022/09/11 00:39:35;;;;;;;58.13;24.73;;;;;;;13.30;100.00;101789.88;5285689;28;20084;-74
2022/09/11 00:42:05;;;;;;;87.95;26.98;;;;;;;13.27;100.00;101786.69;5285366;28;20023;-76
2022/09/11 00:44:36;;;;;;;59.70;24.42;;;;;;;13.24;100.00;101790.53;5285245;28;20034;-73
2022/09/11 00:47:08;;;;;;;75.70;30.10;;;;;;;13.23;100.00;101794.22;5284296;28;20024;-72
2022/09/11 00:49:43;;;;;;;83.03;32.67;;;;;;;13.27;100.00;101783.97;5274910;28;20118;-73
2022/09/11 00:52:18;;;;;;;423.75;41.38;;;;;;;13.30;100.00;101781.78;5282497;28;20361;-73
2022/09/11 00:55:06;;;;;;;81.88;26.60;;;;;;;13.29;100.00;101787.34;5285152;28;20035;-72
2022/09/11 00:57:44;;;;;;;84.07;31.17;;;;;;;13.27;100.00;101783.97;5273630;28;20453;-73
2022/09/11 01:00:14;;;;;;;85.03;34.20;;;;;;;13.30;100.00;101780.94;5281360;28;20028;-74
2022/09/11 01:02:48;;;;;;;83.47;30.08;;;;;;;13.33;100.00;101786.03;5264791;28;20117;-74
2022/09/11 01:05:21;;;;;;;76.95;30.17;;;;;;;13.32;100.00;101792.41;5283773;28;20431;-73
2022/09/11 01:07:53;;;;;;;88.53;30.60;;;;;;;13.31;100.00;101790.75;5285724;28;20020;-74
2022/09/11 01:10:36;;;;;;;86.18;30.33;;;;;;;13.34;100.00;101788.53;5272458;28;20024;-74
2022/09/11 01:13:29;;;;;;;73.80;27.88;;;;;;;13.31;100.00;101779.97;5270713;28;20024;-74
2022/09/11 01:16:31;;;;;;;68.93;26.30;;;;;;;13.27;100.00;101773.19;5285172;28;20031;-74
2022/09/11 01:19:25;;;;;;;60.15;23.52;;;;;;;13.24;100.00;101776.19;5285445;28;20277;-74
2022/09/11 01:22:12;;;;;;;79.07;28.45;;;;;;;13.20;100.00;101789.13;5264612;28;20076;-74
2022/09/11 01:24:55;;;;;;;74.82;27.88;;;;;;;13.24;100.00;101782.44;5284175;28;20020;-73
2022/09/11 01:28:06;;;;;;;144.35;29.15;;;;;;;13.21;100.00;101785.44;5269949;28;20477;-74
2022/09/11 01:30:42;;;;;;;75.40;24.48;;;;;;;13.19;100.00;101782.88;5285536;28;20016;-74
2022/09/11 01:33:29;;;;;;;304.95;30.58;;;;;;;13.19;100.00;101784.72;5279901;28;20474;-73
2022/09/11 01:36:19;;;;;;;147.68;24.00;;;;;;;13.15;100.00;101786.06;5287174;28;20035;-74
2022/09/11 01:38:55;;;;;;;167.80;23.63;;;;;;;13.09;100.00;101781.31;5286910;28;20050;-73
2022/09/11 01:41:29;;;;;;;93.28;23.88;;;;;;;13.05;100.00;101779.94;5268548;28;20570;-73
2022/09/11 01:44:05;;;;;;;98.65;25.52;;;;;;;13.02;100.00;101786.50;5286130;28;20024;-73
2022/09/11 01:46:41;;;;;;;68.18;25.27;;;;;;;13.01;100.00;101784.81;5288703;28;20476;-72
2022/09/11 01:49:18;;;;;;;79.90;27.17;;;;;;;13.00;100.00;101782.28;5281673;28;20109;-72
2022/09/11 01:51:54;;;;;;;85.07;27.80;;;;;;;12.97;100.00;101780.75;5283780;28;20055;-71
2022/09/11 01:54:31;;;;;;;78.50;28.67;;;;;;;12.96;100.00;101782.59;5288517;28;20028;-73
2022/09/11 01:57:09;;;;;;;80.05;27.63;;;;;;;12.95;100.00;101770.16;5288809;28;20039;-72
2022/09/11 01:59:44;;;;;;;94.53;28.00;;;;;;;12.92;100.00;101773.16;5275609;28;20457;-72
2022/09/11 02:02:22;;;;;;;72.32;28.23;;;;;;;12.92;100.00;101770.44;5276352;28;20030;-72
2022/09/11 02:05:02;;;;;;;187.00;29.10;;;;;;;12.87;100.00;101772.78;5271692;28;20547;-72
2022/09/11 02:07:39;;;;;;;216.27;22.08;;;;;;;12.83;100.00;101771.41;5268035;28;20020;-72
2022/09/11 02:10:17;;;;;;;43.30;20.02;;;;;;;12.76;100.00;101778.44;5274165;28;20408;-72
2022/09/11 02:12:56;;;;;;;51.80;21.70;;;;;;;12.74;100.00;101776.88;5273934;28;20472;-73
2022/09/11 02:15:35;;;;;;;143.98;26.02;;;;;;;12.76;100.00;101780.28;5286978;28;20465;-73
2022/09/11 02:18:18;;;;;;;187.38;24.75;;;;;;;12.74;100.00;101777.72;5275209;28;20069;-73
2022/09/11 02:20:50;;;;;;;120.88;20.77;;;;;;;12.70;100.00;101785.31;5274763;28;20051;-74
2022/09/11 02:23:21;;;;;;;40.28;19.13;;;;;;;12.71;100.00;101783.44;5279750;28;20016;-73
2022/09/11 02:25:51;;;;;;;102.47;27.98;;;;;;;12.74;100.00;101782.28;5265196;28;20028;-72
2022/09/11 02:28:22;;;;;;;99.60;22.77;;;;;;;12.78;100.00;101783.66;5287782;28;20020;-73
2022/09/11 02:30:53;;;;;;;57.95;22.83;;;;;;;12.81;100.00;101794.97;5274900;28;20099;-73
2022/09/11 02:33:29;;;;;;;164.30;27.45;;;;;;;12.81;100.00;101792.28;5276466;28;20024;-73
2022/09/11 02:36:34;;;;;;;156.70;27.10;;;;;;;12.83;100.00;101802.88;5286906;28;20031;-73
2022/09/11 02:39:40;;;;;;;154.32;25.85;;;;;;;12.80;100.00;101793.28;5269566;28;20493;-71
2022/09/11 02:42:18;;;;;;;74.87;20.33;;;;;;;12.76;100.00;101807.22;5266989;28;20030;-72
2022/09/11 02:45:22;;;;;;;147.25;25.33;;;;;;;12.74;100.00;101804.66;5247684;28;20027;-72
2022/09/11 02:48:29;;;;;;;88.03;26.63;;;;;;;12.75;100.00;101806.38;5258563;28;20027;-71
2022/09/11 02:51:14;;;;;;;75.78;27.23;;;;;;;12.86;100.00;101813.34;5266894;28;20080;-73
2022/09/11 02:54:08;;;;;;;107.95;30.83;;;;;;;12.96;100.00;101811.38;5285676;28;20031;-72
2022/09/11 02:56:46;;;;;;;157.00;33.85;;;;;;;13.02;100.00;101816.13;5285677;28;20023;-72
2022/09/11 02:59:38;;;;;;;96.18;30.38;;;;;;;13.08;100.00;101818.19;5276777;28;20115;-73
2022/09/11 03:02:12;;;;;;;55.95;26.17;;;;;;;13.08;100.00;101826.28;5274805;28;20119;-71
2022/09/11 03:04:44;;;;;;;58.45;25.98;;;;;;;13.07;100.00;101834.53;5271274;28;20012;-72
2022/09/11 03:07:15;;;;;;;101.40;31.48;;;;;;;13.09;100.00;101827.94;5266718;28;20074;-72
2022/09/11 03:09:46;;;;;;;86.03;28.73;;;;;;;13.12;100.00;101827.66;5279679;28;20030;-72
2022/09/11 03:12:17;;;;;;;66.25;27.88;;;;;;;13.15;100.00;101818.38;5266733;28;20107;-73
2022/09/11 03:14:48;;;;;;;66.30;28.77;;;;;;;13.19;100.00;101828.69;5265363;28;20015;-72
2022/09/11 03:17:19;;;;;;;124.47;30.52;;;;;;;13.19;100.00;101826.00;5275268;28;20031;-72
2022/09/11 03:19:50;;;;;;;85.78;29.85;;;;;;;13.21;100.00;101826.72;5266369;28;20032;-73
2022/09/11 03:22:20;;;;;;;143.15;30.75;;;;;;;13.23;100.00;101828.41;5279466;28;20315;-73
2022/09/11 03:24:51;;;;;;;102.57;30.05;;;;;;;13.23;100.00;101831.94;5265617;28;20020;-73
2022/09/11 03:27:22;;;;;;;247.90;37.13;;;;;;;13.19;100.00;101833.22;5281086;28;20107;-73
2022/09/11 03:29:53;;;;;;;220.38;32.75;;;;;;;13.17;100.00;101838.78;5287090;28;20023;-73
2022/09/11 03:32:23;;;;;;;151.75;30.88;;;;;;;13.14;100.00;101828.31;5284519;28;20088;-73
2022/09/11 03:34:54;;;;;;;151.05;31.35;;;;;;;13.13;100.00;101832.03;5275192;28;20028;-72
2022/09/11 03:37:25;;;;;;;155.98;30.92;;;;;;;13.14;100.00;101835.56;5283285;28;20898;-73
2022/09/11 03:39:55;;;;;;;119.03;30.27;;;;;;;13.13;100.00;101831.19;5265959;28;20537;-72
2022/09/11 03:42:26;;;;;;;95.82;29.63;;;;;;;13.13;100.00;101828.50;5284886;28;20118;-72
2022/09/11 03:44:57;;;;;;;96.13;29.10;;;;;;;13.13;100.00;101832.03;5286756;28;20511;-72
2022/09/11 03:47:28;;;;;;;124.38;32.10;;;;;;;13.13;100.00;101834.72;5286827;28;20053;-72
2022/09/11 03:49:59;;;;;;;101.57;29.45;;;;;;;13.13;100.00;101833.88;5272619;28;20467;-72
2022/09/11 03:52:30;;;;;;;94.75;28.65;;;;;;;13.11;100.00;101833.22;5273564;28;20046;-72
2022/09/11 03:55:02;;;;;;;87.55;30.77;;;;;;;13.12;100.00;101834.88;5274988;28;20032;-72
2022/09/11 03:57:34;;;;;;;65.97;28.30;;;;;;;13.14;100.00;101838.25;5287825;28;20059;-72
2022/09/11 04:00:05;;;;;;;110.43;29.55;;;;;;;13.14;100.00;101831.00;5286423;28;20473;-72
2022/09/11 04:02:36;;;;;;;151.98;32.13;;;;;;;13.15;100.00;101824.66;5287123;28;20034;-72
2022/09/11 04:05:07;;;;;;;119.50;31.73;;;;;;;13.15;100.00;101824.66;5286026;28;20016;-74
2022/09/11 04:07:38;;;;;;;186.57;34.38;;;;;;;13.17;100.00;101825.31;5275398;28;20020;-73
2022/09/11 04:10:08;;;;;;;202.40;34.65;;;;;;;13.18;100.00;101836.94;5278933;28;20023;-73
2022/09/11 04:12:40;;;;;;;150.75;32.83;;;;;;;13.15;100.00;101832.72;5265513;28;20020;-73
2022/09/11 04:15:11;;;;;;;151.18;33.20;;;;;;;13.17;100.00;101841.50;5285128;28;20102;-73
2022/09/11 04:17:41;;;;;;;146.90;34.00;;;;;;;13.14;100.00;101838.25;5286599;28;20023;-73
2022/09/11 04:20:12;;;;;;;221.05;36.17;;;;;;;13.13;100.00;101831.19;5277432;28;20495;-73
2022/09/11 04:22:43;;;;;;;211.20;35.25;;;;;;;13.16;100.00;101836.25;5265129;28;20036;-72
2022/09/11 04:25:13;;;;;;;210.15;32.92;;;;;;;13.13;100.00;101837.41;5276033;28;20027;-72
2022/09/11 04:27:44;;;;;;;168.63;33.60;;;;;;;13.11;100.00;101842.13;5283479;28;20070;-73
2022/09/11 04:30:14;;;;;;;137.43;30.33;;;;;;;13.11;100.00;101843.97;5267149;28;20020;-72
2022/09/11 04:32:45;;;;;;;92.53;31.80;;;;;;;13.10;100.00;101851.22;5285292;28;20051;-72
2022/09/11 04:35:15;;;;;;;187.50;33.58;;;;;;;13.12;100.00;101846.50;5284159;28;20021;-72
2022/09/11 04:37:46;;;;;;;174.48;31.83;;;;;;;13.11;100.00;101841.28;5266386;28;20059;-73
2022/09/11 04:40:16;;;;;;;133.20;30.95;;;;;;;13.09;100.00;101838.72;5247357;28;20477;-72
2022/09/11 04:42:46;;;;;;;152.82;31.38;;;;;;;13.07;100.00;101843.44;5286508;28;20024;-72
2022/09/11 04:45:17;;;;;;;199.15;34.03;;;;;;;13.06;100.00;101838.22;5285720;28;20053;-71
2022/09/11 04:47:51;;;;;;;132.88;32.00;;;;;;;13.05;100.00;101840.06;5285877;28;20023;-71
2022/09/11 04:50:22;;;;;;;87.97;29.67;;;;;;;13.05;100.00;101845.47;5286090;28;20027;-71
2022/09/11 04:52:53;;;;;;;172.45;34.90;;;;;;;13.04;100.00;101849.13;5286644;28;20023;-70
2022/09/11 04:55:24;;;;;;;128.38;32.00;;;;;;;13.04;100.00;101857.22;5271583;28;20085;-71
2022/09/11 04:57:55;;;;;;;190.05;36.53;;;;;;;13.04;100.00;101857.22;5286302;28;20031;-71
2022/09/11 05:00:26;;;;;;;153.88;32.85;;;;;;;13.06;100.00;101852.53;5279557;28;20039;-72
2022/09/11 05:02:56;;;;;;;103.97;30.40;;;;;;;13.05;100.00;101858.06;5278635;28;20111;-72
2022/09/11 05:05:27;;;;;;;139.18;31.98;;;;;;;13.04;100.00;101865.28;5278291;28;20024;-72
2022/09/11 05:07:57;;;;;;;214.98;34.60;;;;;;;13.06;100.00;101862.47;5282693;28;20020;-72
2022/09/11 05:10:28;;;;;;;218.57;35.85;;;;;;;13.07;100.00;101872.22;5277086;28;20477;-71
2022/09/11 05:12:58;;;;;;;71.35;28.33;;;;;;;13.06;100.00;101876.78;5289760;28;20038;-72
2022/09/11 05:15:30;;;;;;;211.00;35.88;;;;;;;13.07;100.00;101878.47;5289072;28;20373;-72
2022/09/11 05:18:02;;;;;;;102.65;29.67;;;;;;;13.09;100.00;101887.22;5285465;28;20040;-72
2022/09/11 05:20:33;;;;;;;89.55;30.40;;;;;;;13.08;100.00;101888.22;5268664;28;20548;-72
2022/09/11 05:23:03;;;;;;;62.53;26.95;;;;;;;13.10;100.00;101891.63;5282157;28;20112;-72
2022/09/11 05:25:35;;;;;;;158.35;33.50;;;;;;;13.12;100.00;101894.16;5267818;28;20059;-72
2022/09/11 05:28:06;;;;;;;126.68;32.58;;;;;;;13.15;100.00;101893.81;5268596;28;20016;-72
2022/09/11 05:30:36;;;;;;;120.97;33.95;;;;;;;13.19;100.00;101900.59;5269467;28;20074;-72
2022/09/11 05:33:07;;;;;;;205.52;34.78;;;;;;;13.24;100.00;101903.69;5281067;28;20078;-72
2022/09/11 05:35:38;;;;;;;127.20;30.42;;;;;;;13.28;100.00;101907.78;5283296;28;20060;-72
2022/09/11 05:38:09;;;;;;;127.00;33.67;;;;;;;13.35;100.00;101910.66;5289553;28;20039;-71
2022/09/11 05:40:57;;;;;;;73.63;28.63;;;;;;;13.40;100.00;101906.53;5285562;28;20048;-72
2022/09/11 05:43:28;;;;;;;178.88;35.55;;;;;;;13.45;100.00;101911.41;5268476;28;20393;-72
2022/09/11 05:45:59;;;;;;;87.03;31.58;;;;;;;13.52;100.00;101915.16;5284188;28;20038;-72
2022/09/11 05:48:31;;;;;;;125.35;30.77;;;;;;;13.57;100.00;101920.94;5283389;28;20019;-72
2022/09/11 05:51:06;;;;;;;183.98;34.45;;;;;;;13.58;100.00;101922.63;5273980;28;20329;-72
2022/09/11 05:53:36;;;;;;;69.75;27.70;;;;;;;13.62;100.00;101920.44;5285300;28;20031;-72
2022/09/11 05:56:25;;;;;;;69.53;28.38;;;;;;;13.65;100.00;101925.50;5285086;28;20016;-72
2022/09/11 05:58:56;;;;;;;186.07;34.90;;;;;;;13.67;100.00;101927.06;5265447;28;20539;-72
2022/09/11 06:01:28;;;;;;;80.00;29.15;;;;;;;13.70;100.00;101929.44;5278470;28;20023;-72
2022/09/11 06:03:58;;;;;;;136.18;37.55;;;;;;;13.74;100.00;101940.72;5254831;28;20431;-72
2022/09/11 06:06:30;;;;;;;244.73;47.15;;;;;;;13.79;100.00;101940.25;5284952;28;20077;-72
2022/09/11 06:09:00;;;;;;;198.90;40.97;;;;;;;13.84;100.00;101949.53;5285317;28;20028;-72
2022/09/11 06:11:31;;;;;;;109.97;34.83;;;;;;;13.90;100.00;101942.66;5262853;28;20032;-72
2022/09/11 06:14:01;;;;;;;88.93;34.13;;;;;;;13.99;100.00;101945.22;5274854;28;20054;-72
2022/09/11 06:16:33;;;;;;;99.82;35.10;;;;;;;14.07;100.00;101947.13;5284129;28;20494;-72
2022/09/11 06:19:04;;;;;;;113.07;36.33;;;;;;;14.25;100.00;101963.22;5285382;28;20032;-72
2022/09/11 06:21:35;;;;;;;113.35;36.08;;;;;;;14.42;100.00;101951.47;5286559;28;20138;-72
2022/09/11 06:24:06;;;;;;;110.82;34.47;;;;;;;14.61;100.00;101947.69;5286289;28;20023;-71
2022/09/11 06:26:37;;;;;;;102.65;32.47;;;;;;;14.73;100.00;101956.28;5287049;28;20547;-72
2022/09/11 06:29:09;;;;;;;105.13;31.13;;;;;;;14.82;100.00;101947.19;5286887;28;21256;-72
2022/09/11 06:31:40;;;;;;;80.55;30.92;;;;;;;14.91;100.00;101948.03;5287237;28;20035;-72
2022/09/11 06:34:10;;;;;;;123.68;31.58;;;;;;;14.98;100.00;101941.78;5285275;28;20024;-72
2022/09/11 06:36:42;;;;;;;134.45;33.45;;;;;;;15.06;100.00;101953.59;5286965;28;20081;-71
2022/09/11 06:39:13;;;;;;;139.95;33.15;;;;;;;15.11;100.00;101954.81;5286615;28;20114;-72
2022/09/11 06:41:43;;;;;;;79.40;31.90;;;;;;;15.16;100.00;101948.88;5286866;28;20114;-72
2022/09/11 06:44:14;;;;;;;85.65;31.77;;;;;;;15.15;100.00;101947.19;5271810;28;20016;-72
2022/09/11 06:46:46;;;;;;;150.52;33.33;;;;;;;15.13;100.00;101944.66;5286301;28;20118;-72
2022/09/11 06:49:16;;;;;;;149.73;35.60;;;;;;;15.10;100.00;101949.56;5286858;28;20012;-71
2022/09/11 06:51:47;;;;;;;171.57;34.28;;;;;;;15.03;100.00;101944.00;5286631;28;20026;-71
2022/09/11 06:54:17;;;;;;;326.67;40.10;;;;;;;15.05;100.00;101947.34;5285224;28;20098;-72
2022/09/11 06:56:47;;;;;;;134.82;31.60;;;;;;;14.93;100.00;101946.00;5286754;28;20129;-71
2022/09/11 06:59:22;;;;;;;288.05;36.90;;;;;;;14.90;100.00;101962.56;5267810;28;20102;-72
2022/09/11 07:01:54;;;;;;;138.85;35.00;;;;;;;14.95;100.00;101965.59;5286298;28;20485;-71
2022/09/11 07:04:24;;;;;;;289.95;40.65;;;;;;;14.97;100.00;101959.03;5285487;28;20023;-71
2022/09/11 07:06:55;;;;;;;111.82;33.33;;;;;;;15.10;100.00;101954.97;5272973;28;20030;-71
2022/09/11 07:09:25;;;;;;;263.85;38.67;;;;;;;15.13;100.00;101952.78;5267297;28;20023;-71
2022/09/11 07:11:56;;;;;;;345.25;38.47;;;;;;;15.13;100.00;101943.81;5286358;28;20029;-71
2022/09/11 07:14:26;;;;;;;202.15;34.90;;;;;;;15.23;100.00;101953.44;5284646;28;20027;-71
2022/09/11 07:16:57;;;;;;;310.13;39.22;;;;;;;15.30;100.00;101945.50;5286066;28;20023;-72
2022/09/11 07:19:27;;;;;;;201.85;37.17;;;;;;;15.40;100.00;101950.72;5283235;28;20104;-72
2022/09/11 07:21:58;;;;;;;189.63;37.20;;;;;;;15.41;100.00;101955.09;5275435;28;20022;-72
2022/09/11 07:24:28;;;;;;;117.97;33.63;;;;;;;15.45;100.00;101948.34;5284691;28;20040;-71
2022/09/11 07:26:59;;;;;;;420.95;44.90;;;;;;;15.51;100.00;101948.53;5285849;28;20392;-72
2022/09/11 07:29:30;;;;;;;468.65;46.85;;;;;;;15.47;100.00;101954.44;5285061;28;20030;-72
2022/09/11 07:32:00;;;;;;;447.05;45.33;;;;;;;15.47;100.00;101949.88;5286227;28;20027;-72
2022/09/11 07:34:31;;;;;;;228.55;37.03;;;;;;;15.56;100.00;101945.28;5270446;28;20024;-72
2022/09/11 07:37:01;;;;;;;111.20;33.28;;;;;;;15.63;100.00;101948.16;5285517;28;20038;-72
2022/09/11 07:39:32;;;;;;;118.00;35.22;;;;;;;15.67;100.00;101946.81;5285449;28;20027;-72
2022/09/11 07:42:03;;;;;;;219.45;36.65;;;;;;;15.72;100.00;101945.28;5284017;28;20035;-72
2022/09/11 07:44:34;;;;;;;395.63;41.90;;;;;;;15.84;100.00;101948.44;5273739;28;20023;-72
2022/09/11 07:47:05;;;;;;;175.82;34.30;;;;;;;15.89;100.00;101956.06;5265980;28;20076;-72
2022/09/11 07:49:35;;;;;;;83.90;31.73;;;;;;;15.90;100.00;101955.88;5274601;28;20016;-72
2022/09/11 07:52:06;;;;;;;91.20;31.45;;;;;;;15.98;100.00;101963.13;5282656;28;20106;-72
2022/09/11 07:54:36;;;;;;;130.45;32.92;;;;;;;15.99;100.00;101967.53;5284821;28;20178;-72
2022/09/11 07:57:07;;;;;;;122.95;35.70;;;;;;;16.09;100.00;101961.91;5285297;28;20473;-72
2022/09/11 07:59:38;;;;;;;370.38;41.65;;;;;;;16.12;100.00;101970.53;5284678;28;20031;-71
2022/09/11 08:02:10;;;;;;;342.20;39.05;;;;;;;16.10;100.00;101971.69;5253566;28;20027;-71
2022/09/11 08:04:40;;;;;;;104.40;32.00;;;;;;;16.20;100.00;101975.88;5284698;28;20019;-71
2022/09/11 08:07:11;;;;;;;287.70;39.25;;;;;;;16.21;100.00;101974.03;5287776;28;20035;-71
2022/09/11 08:09:41;;;;;;;320.25;37.05;;;;;;;16.13;100.00;101974.91;5288127;28;20388;-71
2022/09/11 08:12:12;;;;;;;216.35;35.13;;;;;;;16.19;100.00;101979.63;5284726;28;20430;-71
2022/09/11 08:14:42;;;;;;;362.75;37.40;;;;;;;16.15;100.00;101975.56;5283486;28;20364;-71
2022/09/11 08:17:13;;;;;;;254.70;34.85;;;;;;;16.15;100.00;101975.56;5285230;28;20024;-71
2022/09/11 08:19:44;;;;;;;92.20;31.10;;;;;;;16.25;100.00;101978.06;5284953;28;20019;-71
2022/09/11 08:22:14;;;;;;;90.43;32.65;;;;;;;16.38;100.00;101972.09;5270877;28;20028;-71
2022/09/11 08:24:44;;;;;;;96.75;33.25;;;;;;;16.45;100.00;101973.06;5283862;28;20062;-71
2022/09/11 08:27:15;;;;;;;82.25;31.20;;;;;;;16.62;100.00;101971.97;5270926;28;20541;-71
2022/09/11 08:29:45;;;;;;;114.28;33.55;;;;;;;16.68;100.00;101970.41;5285262;28;20100;-71
2022/09/11 08:32:16;;;;;;;180.52;35.83;;;;;;;16.73;100.00;101973.44;5285101;28;20110;-71
2022/09/11 08:34:46;;;;;;;259.58;37.50;;;;;;;16.67;100.00;101969.56;5266220;28;20030;-70
2022/09/11 08:37:17;;;;;;;267.85;39.13;;;;;;;16.71;100.00;101970.91;5284538;28;20145;-71
2022/09/11 08:39:47;;;;;;;252.55;37.95;;;;;;;16.72;100.00;101977.19;5287054;28;20114;-71
2022/09/11 08:42:18;;;;;;;166.45;38.15;;;;;;;16.81;100.00;101973.38;5283930;28;20099;-71
2022/09/11 08:44:52;;;;;;;151.32;36.92;;;;;;;16.92;100.00;101988.38;5279278;28;20019;-71
2022/09/11 08:47:30;;;;;;;125.25;38.53;;;;;;;17.05;100.00;101983.19;5288120;28;20031;-71
2022/09/11 08:50:19;;;;;;;103.90;37.95;;;;;;;17.23;100.00;101996.47;5288365;28;20423;-71
2022/09/11 08:52:49;;;;;;;114.43;34.92;;;;;;;17.38;100.00;101988.38;5278783;28;20035;-71
2022/09/11 08:55:42;;;;;;;78.57;34.50;;;;;;;17.40;100.00;101991.72;5288116;28;20443;-71
2022/09/11 08:58:19;;;;;;;139.35;36.97;;;;;;;17.38;100.00;101993.78;5288788;28;20023;-70
2022/09/11 09:01:19;;;;;;;84.60;37.08;;;;;;;17.52;100.00;101995.66;5270086;28;20224;-70
2022/09/11 09:03:56;;;;;;;101.82;36.38;;;;;;;17.52;100.00;101996.53;5275381;28;20455;-71
2022/09/11 09:06:53;;;;;;;93.75;39.80;;;;;;;17.58;100.00;101995.78;5288023;28;20030;-71
2022/09/11 09:09:59;;;;;;;100.40;35.42;;;;;;;17.66;100.00;101999.44;5275553;28;20039;-71
2022/09/11 09:12:48;;;;;;;149.80;37.35;;;;;;;17.53;100.00;102003.66;5267760;28;20031;-71
2022/09/11 09:15:45;;;;;;;119.60;37.35;;;;;;;17.57;100.00;102004.97;5286488;28;20085;-71
2022/09/11 09:18:29;;;;;;;79.85;36.40;;;;;;;17.71;100.00;102011.41;5281723;28;20031;-71
2022/09/11 09:21:05;;;;;;;82.15;35.50;;;;;;;17.65;100.00;102006.75;5283301;28;20036;-71
2022/09/11 09:23:42;;;;;;;87.95;37.47;;;;;;;17.76;100.00;102013.63;5287202;28;20069;-71
2022/09/11 09:26:17;;;;;;;106.43;35.38;;;;;;;17.78;100.00;102011.56;5287647;28;20496;-71
2022/09/11 09:28:51;;;;;;;89.72;33.25;;;;;;;17.80;100.00;102012.22;5288151;28;20075;-71
2022/09/11 09:31:27;;;;;;;106.43;34.10;;;;;;;17.61;100.00;102010.84;5288309;28;20060;-71
2022/09/11 09:34:17;;;;;;;103.63;35.97;;;;;;;17.61;100.00;102003.53;5288161;28;20503;-71
2022/09/11 09:37:06;;;;;;;89.45;32.65;;;;;;;17.77;100.00;102008.03;5288552;28;20359;-71
2022/09/11 09:39:36;;;;;;;87.70;36.70;;;;;;;17.97;100.00;102015.59;5275715;28;20088;-71
2022/09/11 09:42:27;;;;;;;83.72;35.08;;;;;;;18.03;100.00;102009.44;5272057;28;20023;-71
2022/09/11 09:45:13;;;;;;;81.78;34.83;;;;;;;18.08;100.00;102018.72;5279299;28;20026;-71
2022/09/11 09:47:46;;;;;;;76.05;34.10;;;;;;;18.29;100.00;102025.25;5275711;28;20027;-71
2022/09/11 09:50:18;;;;;;;77.00;35.20;;;;;;;18.33;100.00;102024.69;5287577;28;20031;-70
2022/09/11 09:52:50;;;;;;;63.45;30.95;;;;;;;18.35;100.00;102030.75;5277388;28;20073;-71
2022/09/11 09:55:20;;;;;;;68.93;32.40;;;;;;;18.32;100.00;102031.16;5279377;28;20102;-71
2022/09/11 09:57:51;;;;;;;65.75;30.15;;;;;;;18.17;100.00;102033.00;5278412;28;20114;-70
2022/09/11 10:00:21;;;;;;;63.15;29.25;;;;;;;18.07;100.00;102032.44;5286921;28;20420;-70
2022/09/11 10:02:54;;;;;;;69.88;33.75;;;;;;;18.15;100.00;102032.38;5288032;28;20058;-70
2022/09/11 10:05:41;;;;;;;67.75;31.88;;;;;;;18.24;100.00;102033.13;5286509;28;20024;-70
2022/09/11 10:08:34;;;;;;;65.20;31.13;;;;;;;18.39;100.00;102036.66;5287474;28;20016;-70
2022/09/11 10:11:09;;;;;;;63.85;33.00;;;;;;;18.49;100.00;102028.22;5287725;28;20023;-71
2022/09/11 10:13:42;;;;;;;60.28;29.52;;;;;;;18.54;100.00;102028.50;5287080;28;20023;-71
2022/09/11 10:16:31;;;;;;;63.17;31.58;;;;;;;18.71;100.00;102026.41;5286364;28;20028;-71
2022/09/11 10:19:02;;;;;;;64.82;32.25;;;;;;;18.82;100.00;102026.75;5287000;28;20019;-71
2022/09/11 10:21:32;;;;;;;55.67;29.42;;;;;;;18.83;100.00;102014.88;5286853;28;20384;-70
2022/09/11 10:24:22;;;;;;;60.47;30.10;;;;;;;18.93;100.00;102027.31;5287006;28;20023;-71
2022/09/11 10:26:53;;;;;;;51.25;28.05;;;;;;;18.92;100.00;102015.56;5287550;28;20030;-71
2022/09/11 10:29:28;;;;;;;57.20;30.33;;;;;;;19.01;100.00;102019.84;5286592;28;20019;-71
2022/09/11 10:32:01;;;;;;;59.60;30.75;;;;;;;19.04;100.00;102013.19;5269030;28;20030;-71
2022/09/11 10:34:36;;;;;;;64.95;32.17;;;;;;;18.97;100.00;102017.72;5285951;28;20381;-71
2022/09/11 10:37:22;;;;;;;51.97;28.38;;;;;;;19.20;100.00;102012.94;5285591;28;20043;-71
2022/09/11 10:40:02;;;;;;;53.03;28.35;;;;;;;19.38;100.00;102016.03;5276497;28;20055;-71
2022/09/11 10:42:34;;;;;;;55.38;26.50;;;;;;;19.56;100.00;102014.69;5286906;28;20110;-71
2022/09/11 10:45:13;;;;;;;47.97;26.83;;;;;;;19.69;100.00;102024.91;5285973;28;20509;-71
2022/09/11 10:47:45;;;;;;;54.38;28.83;;;;;;;19.78;100.00;102021.81;5286451;28;20026;-71
2022/09/11 10:50:16;;;;;;;43.63;25.25;;;;;;;19.81;100.00;102026.03;5272051;28;20031;-71
2022/09/11 10:52:57;;;;;;;52.05;28.05;;;;;;;19.54;100.00;102017.63;5286861;28;20366;-71
2022/09/11 10:55:36;;;;;;;47.35;26.85;;;;;;;19.71;100.00;102018.19;5286144;28;20566;-71
2022/09/11 10:58:15;;;;;;;49.80;27.45;;;;;;;19.81;100.00;102015.97;5286550;28;20076;-70
2022/09/11 11:00:46;;;;;;;46.15;27.02;;;;;;;19.91;100.00;102010.16;5286015;28;20027;-71
2022/09/11 11:03:35;;;;;;;46.13;26.52;;;;;;;19.88;100.00;102018.72;5285883;28;20016;-71
2022/09/11 11:06:25;;;;;;;41.08;26.20;;;;;;;19.98;100.00;102011.06;5285918;28;20020;-71
2022/09/11 11:09:22;;;;;;;50.13;27.08;;;;;;;19.94;100.00;102015.22;5265078;28;20024;-70
2022/09/11 11:12:30;;;;;;;54.75;29.05;;;;;;;19.92;100.00;102017.28;5285124;28;20473;-71
2022/09/11 11:15:37;;;;;;;49.10;27.67;;;;;;;20.07;100.00;102015.28;5285287;28;20024;-70
2022/09/11 11:18:21;;;;;;;51.13;29.25;;;;;;;20.14;100.00;102007.16;5285900;28;20024;-71
2022/09/11 11:21:22;;;;;;;42.35;25.77;;;;;;;20.39;100.00;102010.22;5286042;28;20481;-70
2022/09/11 11:24:07;;;;;;;43.22;26.00;;;;;;;20.73;100.00;102003.84;5286496;28;20366;-71
2022/09/11 11:26:57;;;;;;;;;;;;;;;20.90;100.00;102005.19;5275012;28;20034;-71
2022/09/11 11:29:48;;;;;;;42.72;24.15;;;;;;;21.12;100.00;102007.72;5285794;28;20304;-70
2022/09/11 11:32:35;;;;;;;37.03;23.23;;;;;;;21.02;100.00;102002.66;5272091;28;20020;-71
2022/09/11 11:35:40;;;;;;;37.40;23.45;;;;;;;21.11;100.00;102004.16;5285188;28;20099;-71